Campanya meteocatpedra

Dades de l'estació automàtica Pantà de Riba-roja

?
?
Resum diari 21:00 TU
Dades diàries de l'estació meteorològica
Temperatura mitjana 17.6 °C
Temperatura màxima 19.9 °C 14:57 TU
Temperatura mínima 15.4 °C 20:33 TU
Humitat relativa mitjana 94%
Precipitació acumulada 39.2 mm
Ratxa màxima del vent (2 m) 26.6 km/h - 346º 19:12 TU
Irradiació solar global 3.5 MJ/m2

El tram horari està expressat en Temps Universal (TU). Cal sumar una hora en horari d'hivern i dues en horari d'estiu per passar a l'hora oficial.

Pantà de Riba-roja

Metadades estació meteorol´gica
Municipi Riba-roja d'Ebre
Comarca Ribera d'Ebre
Altitud 69 m
Data alta 18.11.1996
Estat actual Operativa
Dades de període
Període
TU
TM
°C
TX
°C
TN
°C
HRM
%
PPT
mm
VVM (2 m)
km/h
DVM (2 m)
graus
VVX (2 m)
km/h
RS
W/m2
00:00 - 00:30 17.4 17.5 17.3 94 0.0 3.6 329 7.9 0
00:30 - 01:00 17.5 17.6 17.3 93 0.1 3.6 322 7.6 0
01:00 - 01:30 17.1 17.3 17.1 94 0.3 4.7 315 9.4 0
01:30 - 02:00 17.0 17.1 16.7 96 1.2 4.3 287 9.7 0
02:00 - 02:30 16.6 16.7 16.5 98 2.3 4.7 257 11.5 0
02:30 - 03:00 16.7 16.7 16.6 99 4.0 5.8 270 11.2 0
03:00 - 03:30 16.5 16.6 16.4 99 3.3 4.3 253 12.2 0
03:30 - 04:00 16.3 16.5 16.2 99 0.8 1.8 275 7.6 0
04:00 - 04:30 16.5 16.6 16.4 99 0.6 2.2 59 8.6 0
04:30 - 05:00 16.5 16.6 16.3 99 1.6 4.0 70 8.6 0
05:00 - 05:30 16.2 16.4 16.1 99 1.6 4.0 124 10.1 0
05:30 - 06:00 16.1 16.2 16.0 99 1.7 2.9 117 8.3 0
06:00 - 06:30 16.2 16.4 16.0 99 0.9 2.5 110 9.7 0
06:30 - 07:00 16.5 16.6 16.3 98 0.1 3.6 342 9.0 4
07:00 - 07:30 16.7 16.8 16.6 96 0.1 3.2 245 9.0 15
07:30 - 08:00 16.8 17.0 16.7 95 0.0 4.7 291 10.4 58
08:00 - 08:30 16.9 17.2 16.8 95 0.2 1.1 321 5.4 44
08:30 - 09:00 17.3 17.3 17.2 95 0.1 1.4 21 6.1 63
09:00 - 09:30 17.3 17.3 17.2 97 0.2 0.4 79 3.2 59
09:30 - 10:00 17.3 17.4 17.2 97 0.2 1.8 115 6.1 87
10:00 - 10:30 17.6 17.8 17.4 95 0.0 2.2 89 6.5 169
10:30 - 11:00 18.0 18.4 17.8 93 0.0 1.8 115 6.1 154
11:00 - 11:30 18.6 18.8 18.4 91 0.0 0.4 108 3.2 177
11:30 - 12:00 18.9 19.0 18.8 88 0.0 1.1 32 5.0 165
12:00 - 12:30 18.8 18.8 18.7 89 0.0 3.6 293 7.2 157
12:30 - 13:00 18.8 19.0 18.7 88 0.0 2.2 308 4.7 134
13:00 - 13:30 19.0 19.2 18.9 88 0.0 2.2 325 4.0 122
13:30 - 14:00 19.3 19.6 19.2 89 0.0 0.7 332 2.5 124
14:00 - 14:30 19.6 19.7 19.6 88 0.0 0.4 70 3.2 128
14:30 - 15:00 19.8 19.9 19.6 88 0.0 0.7 59 2.2 106
15:00 - 15:30 19.7 19.9 19.6 88 0.0 0.7 131 3.2 76
15:30 - 16:00 19.6 19.6 19.5 87 0.0 0.7 166 2.5 52
16:00 - 16:30 19.4 19.5 19.2 90 0.1 1.1 101 4.0 19
16:30 - 17:00 19.0 19.2 18.9 95 1.0 0.4 174 3.2 4
17:00 - 17:30 18.6 18.8 18.4 97 2.7 1.8 346 5.8 0
17:30 - 18:00 18.3 18.4 18.2 98 0.3 0.4 45 4.0 0
18:00 - 18:30 18.2 18.2 18.1 98 0.3 0.7 123 4.0 0
18:30 - 19:00 18.2 18.5 17.8 91 0.0 2.9 153 24.1 0
19:00 - 19:30 17.7 18.3 16.9 84 0.4 9.4 332 26.6 0
19:30 - 20:00 16.7 16.9 16.5 89 0.2 11.5 294 21.6 0
20:00 - 20:30 16.4 16.7 15.7 93 6.0 7.2 281 15.5 0
20:30 - 21:00 15.7 15.8 15.4 98 5.1 6.1 269 19.8 0
21:00 - 21:30 15.6 15.7 15.5 100 3.8 2.9 59 8.6 0

Les dades en taronja només han passat un control de qualitat automàtic. Resta pendent la seva validació definitiva.